createdAt,value
2022-07-27T00:00:25.578Z,0.00
2022-07-27T00:01:25.578Z,0.00
2022-07-27T00:02:25.524Z,0.00
2022-07-27T00:03:25.516Z,0.00
2022-07-27T00:04:25.598Z,0.00
2022-07-27T00:05:28.485Z,0.00
2022-07-27T00:06:28.517Z,0.00
2022-07-27T00:07:25.459Z,0.00
2022-07-27T00:08:25.438Z,0.00
2022-07-27T00:09:25.439Z,0.00
2022-07-27T00:10:25.410Z,0.00
2022-07-27T00:11:25.400Z,0.00
2022-07-27T00:12:25.410Z,0.00
2022-07-27T00:13:25.389Z,0.00
2022-07-27T00:14:25.361Z,0.00
2022-07-27T00:15:25.351Z,0.00
2022-07-27T00:16:25.415Z,0.00
2022-07-27T00:17:25.343Z,0.00
2022-07-27T00:18:25.310Z,0.00
2022-07-27T00:19:25.295Z,0.00
2022-07-27T00:20:27.114Z,0.00
2022-07-27T00:21:25.263Z,0.00
2022-07-27T00:22:25.293Z,0.00
2022-07-27T00:23:25.236Z,0.00
2022-07-27T00:24:25.225Z,0.00
2022-07-27T00:25:28.220Z,0.00
2022-07-27T00:26:28.204Z,0.00
2022-07-27T00:27:25.186Z,0.00
2022-07-27T00:28:25.201Z,0.00
2022-07-27T00:29:25.156Z,0.00
2022-07-27T00:30:25.145Z,0.00
2022-07-27T00:31:25.205Z,0.00
2022-07-27T00:32:25.117Z,0.00
2022-07-27T00:33:25.150Z,0.00
2022-07-27T00:34:25.087Z,0.00
2022-07-27T00:35:25.077Z,0.00
2022-07-27T00:36:25.070Z,0.00
2022-07-27T00:37:25.049Z,0.00
2022-07-27T00:38:25.060Z,0.00
2022-07-27T00:39:25.035Z,0.00
2022-07-27T00:40:25.009Z,0.00
2022-07-27T00:41:24.997Z,0.00
2022-07-27T00:42:24.979Z,0.00
2022-07-27T00:43:24.971Z,0.00
2022-07-27T00:44:24.981Z,0.00
2022-07-27T00:45:27.943Z,0.00
2022-07-27T00:46:28.040Z,0.00
2022-07-27T00:47:24.913Z,0.00
2022-07-27T00:48:26.496Z,0.00
2022-07-27T00:49:24.983Z,0.00
2022-07-27T00:50:24.872Z,0.00
2022-07-27T00:51:24.862Z,0.00
2022-07-27T00:52:24.844Z,0.00
2022-07-27T00:53:24.854Z,0.00
2022-07-27T00:54:24.844Z,0.00
2022-07-27T00:55:24.805Z,0.00
2022-07-27T00:56:24.798Z,0.00
2022-07-27T00:57:24.775Z,0.00
2022-07-27T00:58:24.766Z,0.00
2022-07-27T00:59:24.787Z,0.00
2022-07-27T01:00:24.766Z,0.00
2022-07-27T01:01:24.786Z,0.00
2022-07-27T01:02:24.792Z,0.00
2022-07-27T01:03:29.686Z,0.00
2022-07-27T01:04:25.708Z,0.00
2022-07-27T01:05:36.417Z,0.00
2022-07-27T01:06:28.689Z,0.00
2022-07-27T01:07:24.640Z,0.00
2022-07-27T01:08:24.628Z,0.00
2022-07-27T01:09:24.641Z,0.00
2022-07-27T01:10:24.598Z,0.00
2022-07-27T01:11:24.621Z,0.00
2022-07-27T01:12:24.571Z,0.00
2022-07-27T01:13:24.559Z,0.00
2022-07-27T01:14:28.593Z,0.00
2022-07-27T01:15:24.531Z,0.00
2022-07-27T01:16:24.614Z,0.00
2022-07-27T01:17:24.506Z,0.00
2022-07-27T01:18:24.511Z,0.00
2022-07-27T01:19:24.472Z,0.00
2022-07-27T01:20:24.484Z,0.00
2022-07-27T01:21:24.495Z,0.00
2022-07-27T01:22:25.434Z,0.00
2022-07-27T01:23:24.444Z,0.00
2022-07-27T01:24:24.404Z,0.00
2022-07-27T01:25:27.384Z,0.00
2022-07-27T01:26:27.442Z,0.00
2022-07-27T01:27:24.367Z,0.00
2022-07-27T01:28:24.348Z,0.00
2022-07-27T01:29:24.327Z,0.00
2022-07-27T01:30:24.324Z,0.00
2022-07-27T01:31:24.394Z,0.00
2022-07-27T01:32:24.347Z,0.00
2022-07-27T01:33:24.276Z,0.00
2022-07-27T01:34:24.278Z,0.00
2022-07-27T01:35:24.248Z,0.00
2022-07-27T01:36:24.228Z,0.00
2022-07-27T01:37:24.221Z,0.00
2022-07-27T01:38:24.233Z,0.00
2022-07-27T01:39:24.189Z,0.00
2022-07-27T01:40:24.179Z,0.00
2022-07-27T01:41:24.159Z,0.00
2022-07-27T01:42:24.150Z,0.00
2022-07-27T01:43:24.168Z,0.00
2022-07-27T01:44:24.123Z,0.00
2022-07-27T01:45:27.102Z,0.00
2022-07-27T01:46:27.169Z,0.00
2022-07-27T01:47:24.073Z,0.00
2022-07-27T01:48:24.091Z,0.00
2022-07-27T01:49:24.107Z,0.00
2022-07-27T01:50:24.033Z,0.00
2022-07-27T01:51:24.015Z,0.00
2022-07-27T01:52:24.005Z,0.00
2022-07-27T01:53:24.024Z,0.00
2022-07-27T01:54:23.979Z,0.00
2022-07-27T01:55:23.965Z,0.00
2022-07-27T01:56:23.976Z,0.00
2022-07-27T01:57:23.937Z,0.00
2022-07-27T01:58:23.956Z,0.00
2022-07-27T01:59:23.907Z,0.00
2022-07-27T02:00:23.905Z,0.00
2022-07-27T02:01:23.967Z,0.00
2022-07-27T02:02:23.868Z,0.00
2022-07-27T02:03:23.898Z,0.00
2022-07-27T02:04:23.847Z,0.00
2022-07-27T02:05:26.851Z,0.00
2022-07-27T02:06:26.828Z,0.00
2022-07-27T02:07:23.798Z,0.00
2022-07-27T02:08:23.797Z,0.00
2022-07-27T02:09:23.959Z,0.00
2022-07-27T02:10:23.771Z,0.00
2022-07-27T02:11:23.739Z,0.00
2022-07-27T02:12:23.736Z,0.00
2022-07-27T02:13:23.710Z,0.00
2022-07-27T02:14:23.709Z,0.00
2022-07-27T02:15:25.190Z,0.00
2022-07-27T02:16:24.489Z,0.00
2022-07-27T02:17:23.660Z,0.00
2022-07-27T02:18:32.682Z,0.00
2022-07-27T02:19:24.642Z,0.00
2022-07-27T02:20:23.662Z,0.00
2022-07-27T02:21:23.613Z,0.00
2022-07-27T02:22:23.593Z,0.00
2022-07-27T02:23:23.582Z,0.00
2022-07-27T02:24:23.577Z,0.00
2022-07-27T02:25:26.577Z,0.00
2022-07-27T02:26:26.557Z,0.00
2022-07-27T02:27:23.525Z,0.00
2022-07-27T02:28:23.521Z,0.00
2022-07-27T02:29:23.502Z,0.00
2022-07-27T02:30:23.516Z,0.00
2022-07-27T02:31:23.503Z,0.00
2022-07-27T02:32:23.538Z,0.00
2022-07-27T02:33:23.543Z,0.00
2022-07-27T02:34:23.478Z,0.00
2022-07-27T02:35:23.416Z,0.00
2022-07-27T02:36:23.408Z,0.00
2022-07-27T02:37:23.407Z,0.00
2022-07-27T02:38:23.408Z,0.00
2022-07-27T02:39:23.368Z,0.00
2022-07-27T02:40:23.370Z,0.00
2022-07-27T02:41:23.330Z,0.00
2022-07-27T02:42:23.331Z,0.00
2022-07-27T02:43:23.335Z,0.00
2022-07-27T02:44:23.300Z,0.00
2022-07-27T02:45:26.320Z,0.00
2022-07-27T02:46:26.338Z,0.00
2022-07-27T02:47:23.270Z,0.00
2022-07-27T02:48:23.250Z,0.00
2022-07-27T02:49:23.264Z,4.00
2022-07-27T02:50:23.224Z,4.00
2022-07-27T02:51:23.229Z,0.00
2022-07-27T02:52:23.184Z,0.00
2022-07-27T02:53:23.182Z,4.00
2022-07-27T02:54:23.163Z,4.00
2022-07-27T02:55:23.145Z,4.00
2022-07-27T02:56:26.872Z,4.00
2022-07-27T02:57:23.123Z,4.00
2022-07-27T02:58:23.107Z,4.00
2022-07-27T02:59:23.096Z,4.00
2022-07-27T03:00:23.085Z,8.00
2022-07-27T03:01:23.096Z,4.00
2022-07-27T03:02:23.106Z,8.00
2022-07-27T03:03:23.037Z,8.00
2022-07-27T03:04:24.085Z,12.00
2022-07-27T03:05:26.012Z,8.00
2022-07-27T03:06:26.015Z,12.00
2022-07-27T03:07:23.003Z,16.00
2022-07-27T03:08:23.027Z,12.00
2022-07-27T03:09:29.009Z,16.00
2022-07-27T03:10:23.949Z,16.00
2022-07-27T03:11:22.929Z,16.00
2022-07-27T03:12:22.926Z,16.00
2022-07-27T03:13:22.901Z,12.00
2022-07-27T03:14:22.940Z,16.00
2022-07-27T03:15:22.870Z,16.00
2022-07-27T03:16:22.920Z,16.00
2022-07-27T03:17:22.862Z,16.00
2022-07-27T03:18:22.834Z,20.00
2022-07-27T03:19:26.945Z,20.00
2022-07-27T03:20:23.882Z,20.00
2022-07-27T03:21:22.794Z,20.00
2022-07-27T03:22:22.787Z,24.00
2022-07-27T03:23:22.788Z,28.00
2022-07-27T03:24:22.755Z,28.00
2022-07-27T03:25:25.763Z,28.00
2022-07-27T03:26:25.779Z,28.00
2022-07-27T03:27:22.714Z,24.00
2022-07-27T03:28:22.717Z,24.00
2022-07-27T03:29:22.684Z,24.00
2022-07-27T03:30:22.677Z,24.00
2022-07-27T03:31:22.770Z,24.00
2022-07-27T03:32:22.649Z,28.00
2022-07-27T03:33:22.635Z,28.00
2022-07-27T03:34:22.625Z,32.00
2022-07-27T03:35:22.610Z,36.00
2022-07-27T03:36:22.598Z,40.00
2022-07-27T03:37:22.652Z,44.00
2022-07-27T03:38:22.565Z,48.00
2022-07-27T03:39:22.547Z,64.00
2022-07-27T03:40:22.548Z,76.00
2022-07-27T03:41:22.531Z,92.00
2022-07-27T03:42:22.659Z,112.00
2022-07-27T03:43:22.490Z,140.00
2022-07-27T03:44:22.479Z,164.00
2022-07-27T03:45:25.462Z,180.00
2022-07-27T03:46:25.554Z,196.00
2022-07-27T03:47:22.442Z,216.00
2022-07-27T03:48:22.454Z,228.00
2022-07-27T03:49:22.483Z,236.00
2022-07-27T03:50:22.406Z,236.00
2022-07-27T03:51:22.388Z,240.00
2022-07-27T03:52:22.373Z,228.00
2022-07-27T03:53:22.383Z,220.00
2022-07-27T03:54:22.343Z,212.00
2022-07-27T03:55:22.325Z,208.00
2022-07-27T03:56:22.366Z,196.00
2022-07-27T03:57:22.307Z,188.00
2022-07-27T03:58:22.287Z,184.00
2022-07-27T03:59:22.273Z,184.00
2022-07-27T04:00:22.272Z,176.00
2022-07-27T04:01:22.275Z,172.00
2022-07-27T04:02:22.320Z,164.00
2022-07-27T04:03:22.217Z,160.00
2022-07-27T04:04:22.212Z,160.00
2022-07-27T04:05:25.237Z,164.00
2022-07-27T04:06:25.192Z,176.00
2022-07-27T04:07:22.158Z,200.00
2022-07-27T04:08:22.150Z,228.00
2022-07-27T04:09:22.129Z,248.00
2022-07-27T04:10:22.126Z,276.00
2022-07-27T04:11:22.271Z,316.00
2022-07-27T04:12:22.091Z,388.00
2022-07-27T04:13:22.080Z,460.00
2022-07-27T04:14:22.070Z,560.00
2022-07-27T04:15:22.060Z,640.00
2022-07-27T04:16:22.080Z,704.00
2022-07-27T04:17:55.266Z,780.00
2022-07-27T04:18:23.031Z,908.00
2022-07-27T04:19:21.995Z,852.00
2022-07-27T04:20:21.992Z,540.00
2022-07-27T04:21:21.964Z,468.00
2022-07-27T04:22:21.955Z,464.00
2022-07-27T04:23:21.964Z,476.00
2022-07-27T04:24:21.963Z,484.00
2022-07-27T04:25:24.947Z,488.00
2022-07-27T04:26:24.924Z,492.00
2022-07-27T04:27:21.885Z,492.00
2022-07-27T04:28:21.878Z,484.00
2022-07-27T04:29:22.442Z,492.00
2022-07-27T04:30:21.901Z,512.00
2022-07-27T04:31:21.947Z,524.00
2022-07-27T04:32:21.824Z,540.00
2022-07-27T04:33:21.804Z,568.00
2022-07-27T04:34:21.797Z,600.00
2022-07-27T04:35:26.382Z,600.00
2022-07-27T04:36:22.776Z,588.00
2022-07-27T04:37:21.752Z,584.00
2022-07-27T04:38:21.751Z,620.00
2022-07-27T04:39:21.729Z,644.00
2022-07-27T04:40:21.741Z,664.00
2022-07-27T04:41:21.698Z,688.00
2022-07-27T04:42:21.680Z,712.00
2022-07-27T04:43:21.702Z,752.00
2022-07-27T04:44:21.669Z,800.00
2022-07-27T04:45:24.651Z,860.00
2022-07-27T04:46:24.748Z,944.00
2022-07-27T04:47:21.623Z,1048.00
2022-07-27T04:48:21.667Z,1192.00
2022-07-27T04:49:21.665Z,1416.00
2022-07-27T04:50:21.571Z,1708.00
2022-07-27T04:51:21.564Z,1980.00
2022-07-27T04:52:26.603Z,2232.00
2022-07-27T04:53:22.598Z,2508.00
2022-07-27T04:54:21.524Z,2808.00
2022-07-27T04:55:21.516Z,3108.00
2022-07-27T04:56:21.503Z,3388.00
2022-07-27T04:57:21.492Z,3628.00
2022-07-27T04:58:21.476Z,3852.00
2022-07-27T04:59:21.486Z,4040.00
2022-07-27T05:00:21.473Z,4328.00
2022-07-27T05:01:21.471Z,4680.00
2022-07-27T05:02:21.431Z,4948.00
2022-07-27T05:03:21.397Z,5260.00
2022-07-27T05:04:21.432Z,5944.00
2022-07-27T05:05:24.398Z,7856.00
2022-07-27T05:06:24.443Z,12652.00
2022-07-27T05:07:21.347Z,12724.00
2022-07-27T05:08:21.338Z,10188.00
2022-07-27T05:09:22.605Z,13056.00
2022-07-27T05:10:21.309Z,9388.00
2022-07-27T05:11:21.296Z,8780.00
2022-07-27T05:12:21.460Z,8992.00
2022-07-27T05:13:21.268Z,4892.00
2022-07-27T05:14:21.890Z,3908.00
2022-07-27T05:15:21.244Z,3988.00
2022-07-27T05:16:23.859Z,5068.00
2022-07-27T05:17:22.244Z,7108.00
2022-07-27T05:18:21.203Z,9236.00
2022-07-27T05:19:21.183Z,10816.00
2022-07-27T05:20:21.183Z,10968.00
2022-07-27T05:21:21.164Z,10312.00
2022-07-27T05:22:21.213Z,10476.00
2022-07-27T05:23:21.136Z,11560.00
2022-07-27T05:24:21.123Z,11936.00
2022-07-27T05:25:24.108Z,12056.00
2022-07-27T05:26:24.114Z,12160.00
2022-07-27T05:27:21.076Z,12176.00
2022-07-27T05:28:21.123Z,11932.00
2022-07-27T05:29:21.047Z,12040.00
2022-07-27T05:30:21.045Z,11944.00
2022-07-27T05:31:21.091Z,11812.00
2022-07-27T05:32:21.010Z,11496.00
2022-07-27T05:33:21.199Z,10804.00
2022-07-27T05:34:20.989Z,11272.00
2022-07-27T05:35:20.969Z,11448.00
2022-07-27T05:36:20.961Z,11756.00
2022-07-27T05:37:20.939Z,12128.00
2022-07-27T05:38:20.932Z,12136.00
2022-07-27T05:39:21.693Z,12176.00
2022-07-27T05:40:20.899Z,12172.00
2022-07-27T05:41:20.882Z,12200.00
2022-07-27T05:42:20.872Z,12244.00
2022-07-27T05:43:20.860Z,12144.00
2022-07-27T05:44:20.843Z,12156.00
2022-07-27T05:45:23.939Z,12192.00
2022-07-27T05:46:24.730Z,12216.00
2022-07-27T05:47:20.805Z,12048.00
2022-07-27T05:48:20.785Z,12216.00
2022-07-27T05:49:20.869Z,12612.00
2022-07-27T05:50:20.767Z,13052.00
2022-07-27T05:51:20.777Z,13664.00
2022-07-27T05:52:20.738Z,14080.00
2022-07-27T05:53:20.726Z,14176.00
2022-07-27T05:54:20.708Z,14592.00
2022-07-27T05:55:20.729Z,13080.00
2022-07-27T05:56:20.678Z,12164.00
2022-07-27T05:57:20.669Z,9300.00
2022-07-27T05:58:20.661Z,12704.00
2022-07-27T05:59:20.640Z,7744.00
2022-07-27T06:00:20.647Z,4900.00
2022-07-27T06:01:20.731Z,3764.00
2022-07-27T06:02:20.592Z,2992.00
2022-07-27T06:03:20.610Z,2676.00
2022-07-27T06:04:20.577Z,2312.00
2022-07-27T06:05:23.620Z,2064.00
2022-07-27T06:06:23.623Z,1888.00
2022-07-27T06:07:20.545Z,1792.00
2022-07-27T06:08:20.526Z,1736.00
2022-07-27T06:09:20.504Z,1708.00
2022-07-27T06:10:20.495Z,1692.00
2022-07-27T06:11:20.475Z,1676.00
2022-07-27T06:12:20.496Z,1656.00
2022-07-27T06:13:21.727Z,1644.00
2022-07-27T06:14:20.434Z,1656.00
2022-07-27T06:15:20.428Z,1704.00
2022-07-27T06:16:20.459Z,1724.00
2022-07-27T06:17:20.408Z,1756.00
2022-07-27T06:18:20.429Z,1804.00
2022-07-27T06:19:20.371Z,1812.00
2022-07-27T06:20:20.361Z,1804.00
2022-07-27T06:21:20.342Z,1860.00
2022-07-27T06:22:20.320Z,1932.00
2022-07-27T06:23:20.310Z,1888.00
2022-07-27T06:24:20.386Z,1816.00
2022-07-27T06:25:23.292Z,1740.00
2022-07-27T06:26:24.365Z,1656.00
2022-07-27T06:27:20.272Z,1584.00
2022-07-27T06:28:20.259Z,1504.00
2022-07-27T06:29:20.235Z,1448.00
2022-07-27T06:30:20.223Z,1464.00
2022-07-27T06:31:20.315Z,1508.00
2022-07-27T06:32:20.268Z,1556.00
2022-07-27T06:33:20.186Z,1616.00
2022-07-27T06:34:20.167Z,1664.00
2022-07-27T06:35:20.168Z,1616.00
2022-07-27T06:36:20.146Z,1568.00
2022-07-27T06:37:20.145Z,1676.00
2022-07-27T06:38:20.137Z,1888.00
2022-07-27T06:39:20.098Z,2204.00
2022-07-27T06:40:20.102Z,2584.00
2022-07-27T06:41:20.128Z,3000.00
2022-07-27T06:42:20.060Z,3440.00
2022-07-27T06:43:20.050Z,3936.00
2022-07-27T06:44:20.039Z,4400.00
2022-07-27T06:45:23.025Z,4724.00
2022-07-27T06:46:23.137Z,4992.00
2022-07-27T06:47:20.014Z,5208.00
2022-07-27T06:48:19.980Z,5464.00
2022-07-27T06:49:20.039Z,5556.00
2022-07-27T06:50:19.978Z,5484.00
2022-07-27T06:51:19.943Z,5132.00
2022-07-27T06:52:19.953Z,4808.00
2022-07-27T06:53:21.454Z,4824.00
2022-07-27T06:54:19.903Z,4860.00
2022-07-27T06:55:19.885Z,4976.00
2022-07-27T06:56:19.913Z,4904.00
2022-07-27T06:57:19.874Z,4708.00
2022-07-27T06:58:19.844Z,4504.00
2022-07-27T06:59:19.832Z,4528.00
2022-07-27T07:00:19.819Z,5096.00
2022-07-27T07:01:19.845Z,4564.00
2022-07-27T07:02:19.829Z,4160.00
2022-07-27T07:03:19.835Z,4572.00
2022-07-27T07:04:23.972Z,4252.00
2022-07-27T07:05:23.748Z,4156.00
2022-07-27T07:06:22.749Z,4392.00
2022-07-27T07:07:19.737Z,4328.00
2022-07-27T07:08:19.769Z,4268.00
2022-07-27T07:09:19.714Z,4216.00
2022-07-27T07:10:19.689Z,4184.00
2022-07-27T07:11:19.675Z,4160.00
2022-07-27T07:12:19.652Z,4140.00
2022-07-27T07:13:19.652Z,4124.00
2022-07-27T07:14:19.652Z,4116.00
2022-07-27T07:15:19.623Z,4112.00
2022-07-27T07:16:19.688Z,4116.00
2022-07-27T07:17:19.857Z,4136.00
2022-07-27T07:18:19.663Z,4140.00
2022-07-27T07:19:19.563Z,4140.00
2022-07-27T07:20:19.567Z,4112.00
2022-07-27T07:21:19.548Z,4104.00
2022-07-27T07:22:19.526Z,4084.00
2022-07-27T07:23:19.525Z,4076.00
2022-07-27T07:24:19.545Z,4072.00
2022-07-27T07:25:22.493Z,4072.00
2022-07-27T07:26:22.496Z,4072.00
2022-07-27T07:27:19.468Z,4092.00
2022-07-27T07:28:19.450Z,4108.00
2022-07-27T07:29:19.447Z,4088.00
2022-07-27T07:30:19.489Z,4080.00
2022-07-27T07:31:19.418Z,4076.00
2022-07-27T07:32:19.398Z,4068.00
2022-07-27T07:33:19.380Z,4072.00
2022-07-27T07:34:19.364Z,4092.00
2022-07-27T07:35:19.352Z,4108.00
2022-07-27T07:36:19.400Z,4120.00
2022-07-27T07:37:19.341Z,4148.00
2022-07-27T07:38:19.312Z,4164.00
2022-07-27T07:39:19.303Z,4196.00
2022-07-27T07:40:41.870Z,4276.00
2022-07-27T07:41:20.296Z,4340.00
2022-07-27T07:42:19.263Z,4480.00
2022-07-27T07:43:19.244Z,4760.00
2022-07-27T07:44:19.236Z,5116.00
2022-07-27T07:45:22.213Z,5604.00
2022-07-27T07:46:22.308Z,6280.00
2022-07-27T07:47:19.208Z,6968.00
2022-07-27T07:48:19.175Z,7680.00
2022-07-27T07:49:21.475Z,7948.00
2022-07-27T07:50:20.158Z,6856.00
2022-07-27T07:51:19.136Z,6248.00
2022-07-27T07:52:19.137Z,4764.00
2022-07-27T07:53:19.107Z,3804.00
2022-07-27T07:54:19.087Z,3064.00
2022-07-27T07:55:19.078Z,2480.00
2022-07-27T07:56:19.100Z,2104.00
2022-07-27T07:57:19.098Z,1888.00
2022-07-27T07:58:19.032Z,1760.00
2022-07-27T07:59:19.029Z,1784.00
2022-07-27T08:00:19.002Z,1876.00
2022-07-27T08:01:19.076Z,1824.00
2022-07-27T08:02:19.074Z,1764.00
2022-07-27T08:03:19.184Z,1748.00
2022-07-27T08:04:18.953Z,1752.00
2022-07-27T08:05:21.952Z,1772.00
2022-07-27T08:06:21.984Z,1864.00
2022-07-27T08:07:18.914Z,1984.00
2022-07-27T08:08:19.057Z,2168.00
2022-07-27T08:09:18.895Z,2368.00
2022-07-27T08:10:18.875Z,2564.00
2022-07-27T08:11:18.863Z,2792.00
2022-07-27T08:12:18.849Z,2960.00
2022-07-27T08:13:22.153Z,3068.00
2022-07-27T08:14:18.847Z,3192.00
2022-07-27T08:15:18.817Z,3256.00
2022-07-27T08:16:18.899Z,3300.00
2022-07-27T08:17:18.799Z,3356.00
2022-07-27T08:18:18.799Z,3416.00
2022-07-27T08:19:18.767Z,3624.00
2022-07-27T08:20:18.749Z,3508.00
2022-07-27T08:21:18.758Z,3580.00
2022-07-27T08:22:18.727Z,3668.00
2022-07-27T08:23:18.746Z,3724.00
2022-07-27T08:24:18.770Z,3788.00
2022-07-27T08:25:21.681Z,3896.00
2022-07-27T08:26:21.716Z,4060.00
2022-07-27T08:27:18.663Z,4252.00
2022-07-27T08:28:18.640Z,4516.00
2022-07-27T08:29:19.055Z,4828.00
2022-07-27T08:30:18.627Z,5136.00
2022-07-27T08:31:24.577Z,5384.00
2022-07-27T08:32:19.650Z,5552.00
2022-07-27T08:33:18.573Z,5656.00
2022-07-27T08:34:18.569Z,5632.00
2022-07-27T08:35:18.545Z,5512.00
2022-07-27T08:36:18.537Z,5332.00
2022-07-27T08:37:18.526Z,5464.00
2022-07-27T08:38:18.563Z,6172.00
2022-07-27T08:39:52.291Z,4860.00
2022-07-27T08:41:19.467Z,4436.00
2022-07-27T08:42:18.466Z,4848.00
2022-07-27T08:43:24.450Z,5216.00
2022-07-27T08:44:19.429Z,5216.00
2022-07-27T08:45:21.419Z,5372.00
2022-07-27T08:46:21.478Z,4368.00
2022-07-27T08:47:18.451Z,5768.00
2022-07-27T08:48:18.396Z,6612.00
2022-07-27T08:49:18.885Z,7180.00
2022-07-27T08:50:18.445Z,7540.00
2022-07-27T08:51:18.341Z,6876.00
2022-07-27T08:52:18.330Z,6464.00
2022-07-27T08:53:18.365Z,6300.00
2022-07-27T08:54:18.302Z,5828.00
2022-07-27T08:55:18.294Z,5980.00
2022-07-27T08:56:18.272Z,6028.00
2022-07-27T08:57:18.260Z,4728.00
2022-07-27T08:58:18.253Z,4720.00
2022-07-27T08:59:18.270Z,5224.00
2022-07-27T09:00:18.272Z,4192.00
2022-07-27T09:01:18.317Z,5368.00
2022-07-27T09:02:18.232Z,5408.00
2022-07-27T09:03:20.612Z,5596.00
2022-07-27T09:04:18.158Z,5556.00
2022-07-27T09:05:21.148Z,5032.00
2022-07-27T09:06:21.150Z,6072.00
2022-07-27T09:07:18.116Z,5804.00
2022-07-27T09:08:18.098Z,6360.00
2022-07-27T09:09:18.134Z,7048.00
2022-07-27T09:10:18.124Z,7572.00
2022-07-27T09:11:18.059Z,7684.00
2022-07-27T09:12:18.041Z,7576.00
2022-07-27T09:13:18.034Z,7488.00
2022-07-27T09:14:18.010Z,6164.00
2022-07-27T09:15:18.054Z,6620.00
2022-07-27T09:16:19.973Z,6276.00
2022-07-27T09:18:18.989Z,5360.00
2022-07-27T09:19:17.953Z,5996.00
2022-07-27T09:20:18.868Z,6776.00
2022-07-27T09:21:17.950Z,7244.00
2022-07-27T09:22:17.917Z,7344.00
2022-07-27T09:23:17.895Z,6928.00
2022-07-27T09:24:44.304Z,6864.00
2022-07-27T09:25:38.354Z,5112.00
2022-07-27T09:26:37.275Z,5152.00
2022-07-27T09:27:18.843Z,5256.00
2022-07-27T09:28:17.830Z,5320.00
2022-07-27T09:29:17.990Z,5124.00
2022-07-27T09:30:17.801Z,4848.00
2022-07-27T09:31:17.856Z,4532.00
2022-07-27T09:32:17.904Z,4232.00
2022-07-27T09:33:17.760Z,3960.00
2022-07-27T09:34:17.799Z,3908.00
2022-07-27T09:35:17.740Z,5696.00
2022-07-27T09:36:17.720Z,6128.00
2022-07-27T09:37:17.700Z,6648.00
2022-07-27T09:38:17.687Z,6784.00
2022-07-27T09:39:17.947Z,6764.00
2022-07-27T09:40:22.613Z,6768.00
2022-07-27T09:41:18.653Z,5212.00
2022-07-27T09:43:02.793Z,4928.00
2022-07-27T09:44:19.751Z,4836.00
2022-07-27T09:44:34.749Z,4872.00
2022-07-27T09:45:21.634Z,5072.00
2022-07-27T09:46:20.622Z,5580.00
2022-07-27T09:47:17.565Z,5868.00
2022-07-27T09:48:17.555Z,6116.00
2022-07-27T09:49:17.600Z,7148.00
2022-07-27T09:50:17.679Z,7032.00
2022-07-27T09:51:58.268Z,5148.00
2022-07-27T09:52:18.517Z,6784.00
2022-07-27T09:53:41.749Z,6604.00
2022-07-27T09:54:18.469Z,6400.00
2022-07-27T09:55:17.494Z,5624.00
2022-07-27T09:56:17.447Z,5148.00
2022-07-27T09:57:17.431Z,6544.00
2022-07-27T09:58:17.419Z,6668.00
2022-07-27T09:59:17.441Z,5960.00
2022-07-27T10:00:17.581Z,6016.00
2022-07-27T10:01:17.469Z,5932.00
2022-07-27T10:02:17.467Z,5880.00
2022-07-27T10:03:17.352Z,5760.00
2022-07-27T10:04:17.694Z,6632.00
2022-07-27T10:05:20.366Z,6012.00
2022-07-27T10:06:20.324Z,6144.00
2022-07-27T10:07:17.294Z,6820.00
2022-07-27T10:08:17.285Z,7876.00
2022-07-27T10:09:17.318Z,6140.00
2022-07-27T10:10:17.277Z,6460.00
2022-07-27T10:11:17.305Z,6556.00
2022-07-27T10:12:17.236Z,6480.00
2022-07-27T10:13:17.225Z,6484.00
2022-07-27T10:14:17.205Z,6184.00
2022-07-27T10:15:17.199Z,5916.00
2022-07-27T10:16:17.291Z,6036.00
2022-07-27T10:17:17.219Z,6088.00
2022-07-27T10:18:17.166Z,6144.00
2022-07-27T10:19:17.140Z,6120.00
2022-07-27T10:20:17.120Z,6372.00
2022-07-27T10:21:17.124Z,7000.00
2022-07-27T10:22:17.100Z,8624.00
2022-07-27T10:23:17.110Z,7364.00
2022-07-27T10:24:17.069Z,6420.00
2022-07-27T10:25:20.064Z,5876.00
2022-07-27T10:26:20.052Z,5292.00
2022-07-27T10:27:17.076Z,4724.00
2022-07-27T10:28:17.019Z,4328.00
2022-07-27T10:29:16.997Z,4096.00
2022-07-27T10:30:16.985Z,4080.00
2022-07-27T10:31:18.075Z,3876.00
2022-07-27T10:32:16.966Z,4228.00
2022-07-27T10:33:16.997Z,6084.00
2022-07-27T10:34:16.940Z,6004.00
2022-07-27T10:35:16.915Z,5672.00
2022-07-27T10:36:17.221Z,4648.00
2022-07-27T10:37:16.895Z,5180.00
2022-07-27T10:38:16.878Z,5320.00
2022-07-27T10:39:16.914Z,4984.00
2022-07-27T10:40:16.859Z,5104.00
2022-07-27T10:41:16.881Z,5296.00
2022-07-27T10:42:16.821Z,5424.00
2022-07-27T10:43:16.811Z,4464.00
2022-07-27T10:44:17.818Z,5484.00
2022-07-27T10:45:19.843Z,6720.00
2022-07-27T10:46:19.823Z,5284.00
2022-07-27T10:47:16.753Z,5252.00
2022-07-27T10:48:16.745Z,5160.00
2022-07-27T10:49:16.755Z,5168.00
2022-07-27T10:50:16.723Z,7404.00
2022-07-27T10:51:17.164Z,5992.00
2022-07-27T10:52:16.705Z,7604.00
2022-07-27T10:53:16.676Z,8136.00
2022-07-27T10:54:16.665Z,6472.00
2022-07-27T10:55:16.646Z,6208.00
2022-07-27T10:56:16.648Z,6360.00
2022-07-27T10:57:16.647Z,8416.00
2022-07-27T10:58:16.623Z,6756.00
2022-07-27T10:59:16.608Z,7656.00
2022-07-27T11:00:19.909Z,7876.00
2022-07-27T11:01:16.659Z,6148.00
2022-07-27T11:02:16.588Z,7428.00
2022-07-27T11:03:16.539Z,5028.00
2022-07-27T11:04:17.048Z,4680.00
2022-07-27T11:05:58.649Z,4644.00
2022-07-27T11:07:04.671Z,4628.00
2022-07-27T11:07:30.074Z,5104.00
2022-07-27T11:08:36.520Z,4932.00
2022-07-27T11:10:02.869Z,4884.00
2022-07-27T11:10:17.452Z,4824.00
2022-07-27T11:11:16.433Z,4844.00
2022-07-27T11:12:16.422Z,4960.00
2022-07-27T11:13:16.474Z,5296.00
2022-07-27T11:14:18.970Z,7212.00
2022-07-27T11:15:16.412Z,7196.00
2022-07-27T11:16:23.844Z,6400.00
2022-07-27T11:17:48.702Z,7888.00
2022-07-27T11:18:17.438Z,5956.00
2022-07-27T11:19:16.960Z,5752.00
2022-07-27T11:20:16.323Z,5772.00
2022-07-27T11:21:20.384Z,6024.00
2022-07-27T11:22:28.708Z,6324.00
2022-07-27T11:24:17.430Z,6460.00
2022-07-27T11:25:19.301Z,6020.00
2022-07-27T11:26:19.250Z,5884.00
2022-07-27T11:27:18.395Z,5824.00
2022-07-27T11:28:16.214Z,5876.00
2022-07-27T11:29:16.454Z,6240.00
2022-07-27T11:30:16.192Z,8620.00
2022-07-27T11:31:32.470Z,7860.00
2022-07-27T11:32:17.163Z,8760.00
2022-07-27T11:33:16.143Z,6872.00
2022-07-27T11:34:16.485Z,6828.00
2022-07-27T11:35:19.744Z,6436.00
2022-07-27T11:36:16.135Z,6404.00
2022-07-27T11:37:16.093Z,6244.00
2022-07-27T11:38:16.078Z,5848.00
2022-07-27T11:39:19.684Z,5732.00
2022-07-27T11:40:53.984Z,5648.00
2022-07-27T11:41:28.310Z,5564.00
2022-07-27T11:42:20.880Z,6044.00
2022-07-27T11:43:16.016Z,6008.00
2022-07-27T11:44:16.349Z,4680.00
2022-07-27T11:45:18.979Z,4384.00
2022-07-27T11:46:19.094Z,4280.00
2022-07-27T11:47:15.949Z,3996.00
2022-07-27T11:48:15.939Z,4160.00
2022-07-27T11:49:15.953Z,4860.00
2022-07-27T11:50:15.937Z,5688.00
2022-07-27T11:51:15.901Z,5416.00
2022-07-27T11:52:15.943Z,5564.00
2022-07-27T11:53:15.883Z,5416.00
2022-07-27T11:54:15.863Z,5284.00
2022-07-27T11:55:15.843Z,5328.00
2022-07-27T11:56:15.835Z,4936.00
2022-07-27T11:57:15.835Z,4788.00
2022-07-27T11:58:15.835Z,4676.00
2022-07-27T11:59:16.087Z,4396.00
2022-07-27T12:00:15.794Z,4108.00
2022-07-27T12:01:15.777Z,4060.00
2022-07-27T12:02:15.806Z,3992.00
2022-07-27T12:03:15.765Z,4288.00
2022-07-27T12:04:15.928Z,4448.00
2022-07-27T12:05:18.747Z,4664.00
2022-07-27T12:06:18.718Z,6084.00
2022-07-27T12:07:15.912Z,4476.00
2022-07-27T12:08:15.681Z,5020.00
2022-07-27T12:09:16.308Z,6380.00
2022-07-27T12:10:15.682Z,6404.00
2022-07-27T12:11:15.630Z,5036.00
2022-07-27T12:12:15.659Z,4568.00
2022-07-27T12:13:15.614Z,4660.00
2022-07-27T12:14:15.592Z,5496.00
2022-07-27T12:15:44.330Z,6444.00
2022-07-27T12:16:18.508Z,6852.00
2022-07-27T12:17:15.580Z,7032.00
2022-07-27T12:18:15.545Z,7416.00
2022-07-27T12:19:16.030Z,6360.00
2022-07-27T12:20:15.526Z,7720.00
2022-07-27T12:21:15.530Z,7476.00
2022-07-27T12:22:15.496Z,5732.00
2022-07-27T12:23:15.476Z,5324.00
2022-07-27T12:24:15.467Z,5304.00
2022-07-27T12:25:18.466Z,5648.00
2022-07-27T12:26:18.447Z,5996.00
2022-07-27T12:27:15.478Z,6632.00
2022-07-27T12:28:15.410Z,7180.00